Time;durP1;ratioP1;P1;durP2;ratioP2;P2;SDS_P1;SDS_P2;PMS_P1;PMS_P2;Temp;Humidity;BMP_temperature;BMP_pressure;BME280_temperature;BME280_humidity;BME280_pressure;Samples;Min_cycle;Max_cycle;Signal;HPM_P1;HPM_P2
2022/10/14 00:02:22;;;;;;;9.77;5.60;;;;;;;19.14;66.59;101289.69;5097632;28;20071;-77
2022/10/14 00:04:49;;;;;;;10.02;6.05;;;;;;;19.11;66.59;101293.16;5106193;28;20040;-77
2022/10/14 00:07:16;;;;;;;10.55;5.50;;;;;;;19.09;66.89;101282.16;5101559;28;20063;-77
2022/10/14 00:09:43;;;;;;;16.33;7.55;;;;;;;19.16;66.72;101290.22;5101965;28;20051;-76
2022/10/14 00:12:09;;;;;;;11.57;7.15;;;;;;;19.16;66.68;101291.03;5100036;28;20153;-77
2022/10/14 00:14:38;;;;;;;13.07;5.45;;;;;;;19.13;66.95;101277.53;5099571;28;20052;-77
2022/10/14 00:17:05;;;;;;;9.63;5.75;;;;;;;19.28;67.00;101289.63;5100509;28;20168;-78
2022/10/14 00:19:31;;;;;;;10.55;5.85;;;;;;;19.20;66.94;101274.25;5099875;28;20055;-78
2022/10/14 00:21:58;;;;;;;10.57;5.25;;;;;;;19.23;66.88;101270.78;5106433;28;20058;-80
2022/10/14 00:24:25;;;;;;;7.03;4.43;;;;;;;19.31;66.67;101286.16;5109142;28;20051;-77
2022/10/14 00:26:52;;;;;;;11.80;6.35;;;;;;;19.27;66.67;101283.13;5106121;28;20422;-77
2022/10/14 00:29:19;;;;;;;12.52;7.00;;;;;;;18.99;66.57;101224.97;5102100;28;20520;-77
2022/10/14 00:31:46;;;;;;;11.52;6.57;;;;;;;19.18;66.84;101259.59;5102805;28;20351;-78
2022/10/14 00:34:14;;;;;;;12.88;6.65;;;;;;;19.17;66.98;101253.06;5103860;28;20048;-76
2022/10/14 00:36:42;;;;;;;12.75;8.35;;;;;;;19.36;66.85;101275.53;5099155;28;20055;-77
2022/10/14 00:39:09;;;;;;;12.90;6.95;;;;;;;19.28;66.93;101264.13;5100941;28;20467;-79
2022/10/14 00:41:36;;;;;;;11.93;6.28;;;;;;;19.20;67.08;101259.25;5102811;28;20055;-81
2022/10/14 00:44:05;;;;;;;14.38;7.25;;;;;;;19.20;67.26;101248.75;5099096;28;20040;-79
2022/10/14 00:46:34;;;;;;;12.38;6.65;;;;;;;19.24;67.12;101252.63;5104025;28;20485;-79
2022/10/14 00:49:42;;;;;;;17.85;7.32;;;;;;;19.22;67.17;101259.78;5105520;28;20410;-81
2022/10/14 00:52:18;;;;;;;12.65;7.10;;;;;;;19.19;67.08;101244.28;5099545;28;20074;-82
2022/10/14 00:55:11;;;;;;;12.90;7.10;;;;;;;19.19;66.96;101244.28;5103422;28;20044;-81
2022/10/14 00:57:38;;;;;;;10.13;6.45;;;;;;;19.10;66.77;101241.34;5100357;28;20043;-82
2022/10/14 01:00:18;;;;;;;13.10;7.07;;;;;;;18.90;66.32;101205.06;5102489;28;20048;-82
2022/10/14 01:02:46;;;;;;;10.75;6.00;;;;;;;19.03;66.53;101218.31;5103050;28;20059;-80
2022/10/14 01:05:15;;;;;;;12.63;6.75;;;;;;;19.16;66.35;101236.41;5103884;28;20055;-80
2022/10/14 01:07:53;;;;;;;12.00;6.43;;;;;;;19.04;66.39;101234.19;5104555;28;20051;-80
2022/10/14 01:10:56;;;;;;;15.20;6.78;;;;;;;19.06;66.15;101229.00;5106961;28;20051;-80
2022/10/14 01:13:32;;;;;;;10.40;6.22;;;;;;;19.03;66.32;101232.47;5101229;28;20047;-80
2022/10/14 01:16:05;;;;;;;12.20;6.30;;;;;;;18.97;66.42;101236.59;5104125;28;20055;-79
2022/10/14 01:18:54;;;;;;;14.07;8.00;;;;;;;18.90;66.14;101241.84;5101505;27;20051;-78
2022/10/14 01:21:29;;;;;;;14.00;5.70;;;;;;;18.94;66.01;101243.75;5102920;28;20047;-78
2022/10/14 01:24:04;;;;;;;12.10;6.60;;;;;;;18.92;66.07;101239.56;5100951;28;20044;-78
2022/10/14 01:26:49;;;;;;;8.77;6.03;;;;;;;18.89;65.95;101245.84;5102007;28;20049;-78
2022/10/14 01:29:25;;;;;;;10.27;5.75;;;;;;;18.86;66.29;101236.00;5095295;28;20059;-77
2022/10/14 01:32:09;;;;;;;10.77;6.00;;;;;;;18.83;66.40;101238.63;5103516;28;20474;-78
2022/10/14 01:34:43;;;;;;;11.77;6.72;;;;;;;18.86;66.28;101238.84;5103388;28;20047;-78
2022/10/14 01:37:16;;;;;;;11.73;6.05;;;;;;;18.87;66.40;101242.50;5103612;28;20382;-78
2022/10/14 01:39:55;;;;;;;14.20;6.70;;;;;;;18.82;66.69;101234.16;5099936;28;20048;-77
2022/10/14 01:42:27;;;;;;;9.40;5.43;;;;;;;18.78;66.87;101230.28;5107381;28;20755;-81
2022/10/14 01:45:07;;;;;;;11.40;6.28;;;;;;;18.64;67.18;101233.97;5104579;28;20044;-80
2022/10/14 01:47:37;;;;;;;11.80;6.45;;;;;;;18.72;66.89;101240.88;5102624;28;20055;-81
2022/10/14 01:50:11;;;;;;;10.02;6.68;;;;;;;18.73;66.93;101241.72;5099584;28;20056;-82
2022/10/14 01:52:47;;;;;;;11.98;6.15;;;;;;;18.66;67.24;101231.63;5104150;28;20066;-80
2022/10/14 01:55:18;;;;;;;11.02;5.72;;;;;;;18.40;67.43;101188.97;5104219;28;20046;-78
2022/10/14 01:57:49;;;;;;;16.52;6.00;;;;;;;18.58;67.43;101212.59;5102530;28;20048;-79
2022/10/14 02:00:16;;;;;;;9.63;5.75;;;;;;;18.77;66.99;101231.41;5098777;28;20491;-80
2022/10/14 02:02:43;;;;;;;13.38;6.03;;;;;;;18.48;67.12;101179.72;5102892;28;20040;-83
2022/10/14 02:05:40;;;;;;;13.43;7.07;;;;;;;18.77;66.91;101220.09;5102228;28;20118;-83
2022/10/14 02:08:18;;;;;;;11.82;6.38;;;;;;;18.82;66.92;101217.16;5098386;28;20064;-84
2022/10/14 02:11:04;;;;;;;11.00;5.88;;;;;;;18.77;67.03;101214.44;5106430;28;20055;-85
2022/10/14 02:13:55;;;;;;;10.57;5.47;;;;;;;18.74;66.99;101218.78;5103328;28;20063;-79
2022/10/14 02:16:47;;;;;;;8.27;4.88;;;;;;;18.65;67.42;101209.34;5103391;28;20040;-80
2022/10/14 02:19:17;;;;;;;8.23;5.30;;;;;;;18.72;67.23;101218.25;5096943;28;20051;-79
2022/10/14 02:22:00;;;;;;;10.10;5.47;;;;;;;18.61;67.36;101214.78;5102543;28;20052;-80
2022/10/14 02:24:32;;;;;;;12.05;6.20;;;;;;;18.67;67.49;101227.66;5103801;28;20048;-80
2022/10/14 02:27:05;;;;;;;11.02;4.78;;;;;;;18.56;67.71;101192.28;5104919;28;20055;-80
2022/10/14 02:29:35;;;;;;;11.18;6.47;;;;;;;18.41;67.35;101161.53;5100701;28;20043;-80
2022/10/14 02:32:05;;;;;;;8.55;5.65;;;;;;;18.63;67.42;101186.16;5100263;28;20054;-79
2022/10/14 02:34:37;;;;;;;12.18;6.00;;;;;;;18.70;67.81;101195.91;5104444;28;20043;-79
2022/10/14 02:37:06;;;;;;;8.60;4.63;;;;;;;18.80;67.69;101206.16;5106531;28;20105;-78
2022/10/14 02:39:41;;;;;;;8.88;5.43;;;;;;;18.66;67.76;101196.84;5103923;28;20055;-78
2022/10/14 02:42:08;;;;;;;6.90;3.72;;;;;;;18.37;67.82;101166.16;5103667;28;20052;-79
2022/10/14 02:44:34;;;;;;;8.02;4.60;;;;;;;18.75;67.72;101202.63;5105296;28;20062;-78
2022/10/14 02:47:01;;;;;;;9.07;5.38;;;;;;;18.76;67.49;101193.81;5102804;28;20052;-79
2022/10/14 02:49:28;;;;;;;8.35;4.30;;;;;;;18.78;67.48;101193.50;5096589;28;20081;-78
2022/10/14 02:51:55;;;;;;;10.88;4.57;;;;;;;18.73;67.80;101185.97;5096370;28;20067;-79
2022/10/14 02:54:21;;;;;;;13.60;5.75;;;;;;;18.77;67.58;101197.47;5100806;28;20052;-79
2022/10/14 02:56:48;;;;;;;9.73;5.10;;;;;;;18.74;67.50;101179.16;5101945;28;20390;-80
2022/10/14 02:59:15;;;;;;;9.80;5.20;;;;;;;18.67;67.25;101165.44;5099512;28;20051;-81
2022/10/14 03:01:42;;;;;;;9.25;5.38;;;;;;;18.80;67.58;101189.19;5098983;28;20521;-82
2022/10/14 03:04:09;;;;;;;12.73;5.70;;;;;;;18.70;67.53;101170.44;5094834;28;20143;-80
2022/10/14 03:06:35;;;;;;;11.40;4.90;;;;;;;18.80;67.39;101177.84;5100493;28;20047;-81
2022/10/14 03:09:02;;;;;;;11.93;6.47;;;;;;;18.83;67.39;101179.22;5104526;28;20055;-80
2022/10/14 03:11:29;;;;;;;10.00;6.07;;;;;;;18.73;67.67;101159.66;5099495;28;20055;-79
2022/10/14 03:13:56;;;;;;;10.82;5.85;;;;;;;18.79;67.63;101166.88;5100223;28;20051;-79
2022/10/14 03:16:22;;;;;;;10.27;5.43;;;;;;;18.82;67.72;101172.72;5105870;28;20048;-78
2022/10/14 03:18:49;;;;;;;8.93;5.43;;;;;;;18.82;67.95;101172.72;5099924;28;20051;-78
2022/10/14 03:21:16;;;;;;;11.02;5.30;;;;;;;18.80;67.60;101175.03;5099640;28;20067;-76
2022/10/14 03:23:43;;;;;;;9.35;5.40;;;;;;;18.39;67.59;101127.06;5099990;28;20048;-76
2022/10/14 03:26:09;;;;;;;10.55;6.47;;;;;;;18.62;67.27;101168.38;5097667;28;20066;-76
2022/10/14 03:28:39;;;;;;;12.15;6.20;;;;;;;18.64;67.30;101171.72;5100685;28;20130;-77
2022/10/14 03:31:06;;;;;;;8.85;5.57;;;;;;;18.67;67.23;101181.56;5102157;28;20056;-84
2022/10/14 03:33:33;;;;;;;9.52;5.93;;;;;;;18.61;67.09;101186.50;5103248;28;20056;-84
2022/10/14 03:36:00;;;;;;;11.30;6.57;;;;;;;18.58;66.94;101178.66;5105062;28;20453;-83
2022/10/14 03:38:27;;;;;;;9.45;5.53;;;;;;;18.48;66.80;101167.59;5095613;28;20573;-81
2022/10/14 03:40:54;;;;;;;14.20;6.90;;;;;;;18.02;66.73;101099.94;5100926;28;20055;-75
2022/10/14 03:43:20;;;;;;;12.93;6.18;;;;;;;18.38;66.79;101159.34;5102414;28;20047;-77
2022/10/14 03:45:47;;;;;;;14.68;6.28;;;;;;;18.28;66.68;101148.28;5098636;28;20490;-83
2022/10/14 03:48:14;;;;;;;13.95;6.97;;;;;;;18.38;66.75;101162.16;5103007;28;20455;-82
2022/10/14 03:50:41;;;;;;;8.85;5.15;;;;;;;18.26;66.33;101142.13;5103991;28;20047;-82
2022/10/14 03:53:07;;;;;;;14.63;6.53;;;;;;;18.30;66.46;101151.63;5097786;28;20058;-81
2022/10/14 03:55:34;;;;;;;10.93;6.00;;;;;;;18.19;66.24;101146.22;5103740;28;20137;-81
2022/10/14 03:58:01;;;;;;;12.18;6.18;;;;;;;18.21;66.61;101158.00;5101552;28;20409;-80
2022/10/14 04:00:28;;;;;;;14.13;5.82;;;;;;;18.23;66.34;101157.72;5101542;28;20051;-79
2022/10/14 04:02:55;;;;;;;10.63;6.63;;;;;;;18.17;66.72;101165.47;5112003;28;20502;-77
2022/10/14 04:05:22;;;;;;;11.20;6.03;;;;;;;18.14;66.93;101163.25;5106646;28;20383;-78
2022/10/14 04:07:49;;;;;;;13.77;6.53;;;;;;;18.07;66.75;101145.91;5103544;28;20059;-79
2022/10/14 04:10:16;;;;;;;10.68;5.82;;;;;;;17.75;66.94;101105.31;5103778;28;20051;-78
2022/10/14 04:12:42;;;;;;;9.60;5.95;;;;;;;17.98;66.90;101136.50;5102545;28;20056;-79
2022/10/14 04:15:09;;;;;;;10.98;5.85;;;;;;;17.96;67.07;101117.03;5105994;28;22814;-79
2022/10/14 04:17:36;;;;;;;9.10;4.50;;;;;;;18.07;67.25;101145.91;5105128;28;20067;-78
2022/10/14 04:20:03;;;;;;;8.82;4.78;;;;;;;18.07;67.32;101139.41;5103738;28;20055;-79
2022/10/14 04:22:32;;;;;;;9.90;5.82;;;;;;;18.20;67.01;101156.34;5102390;28;20509;-79
2022/10/14 04:25:01;;;;;;;11.73;4.88;;;;;;;18.27;66.68;101150.25;5103427;28;20055;-79
2022/10/14 04:27:37;;;;;;;12.98;7.10;;;;;;;18.10;67.41;101122.66;5102221;28;20050;-78
2022/10/14 04:30:05;;;;;;;9.35;4.97;;;;;;;18.30;67.46;101143.16;5111375;28;20043;-79
2022/10/14 04:32:32;;;;;;;8.63;5.68;;;;;;;18.27;67.61;101150.25;5104881;28;20501;-80
2022/10/14 04:34:58;;;;;;;10.73;5.53;;;;;;;17.92;67.93;101092.56;5105435;28;20044;-80
2022/10/14 04:37:25;;;;;;;9.50;6.03;;;;;;;18.29;67.91;101147.09;5100988;28;20059;-79
2022/10/14 04:39:52;;;;;;;10.55;5.82;;;;;;;18.30;68.16;101138.31;5102391;28;20055;-78
2022/10/14 04:42:19;;;;;;;10.27;5.18;;;;;;;18.28;67.81;101134.97;5100474;28;20055;-79
2022/10/14 04:44:46;;;;;;;8.38;4.22;;;;;;;18.29;67.91;101138.63;5103046;28;20131;-80
2022/10/14 04:47:13;;;;;;;10.32;5.55;;;;;;;18.29;67.45;101118.84;5097145;28;20051;-79
2022/10/14 04:49:39;;;;;;;9.77;4.80;;;;;;;18.37;67.58;101130.22;5101776;28;20055;-78
2022/10/14 04:52:06;;;;;;;7.68;4.00;;;;;;;18.28;67.52;101128.47;5102801;28;20052;-78
2022/10/14 04:54:33;;;;;;;8.35;4.50;;;;;;;18.04;68.45;101112.63;5098928;28;20927;-77
2022/10/14 04:57:00;;;;;;;6.45;3.92;;;;;;;18.10;68.83;101117.00;5100591;28;20052;-77
2022/10/14 04:59:27;;;;;;;5.93;3.67;;;;;;;17.65;69.12;101054.69;5107853;28;20055;-79
2022/10/14 05:01:53;;;;;;;7.25;3.90;;;;;;;18.22;69.26;101139.91;5110102;28;20056;-80
2022/10/14 05:04:20;;;;;;;7.72;4.75;;;;;;;18.18;69.09;101127.56;5101099;28;20087;-81
2022/10/14 05:06:47;;;;;;;9.10;4.25;;;;;;;18.14;69.50;101135.00;5103715;27;20513;-81
2022/10/14 05:09:14;;;;;;;9.90;4.32;;;;;;;17.95;69.19;101114.53;5099874;28;20082;-81
2022/10/14 05:11:41;;;;;;;7.93;4.38;;;;;;;17.99;69.19;101138.19;5106212;28;20505;-84
2022/10/14 05:14:08;;;;;;;11.02;9.32;;;;;;;17.88;68.96;101122.59;5099321;28;20461;-82
2022/10/14 05:16:35;;;;;;;13.65;12.55;;;;;;;17.72;68.72;101113.59;5106481;28;20044;-82
2022/10/14 05:19:02;;;;;;;13.10;12.00;;;;;;;17.76;68.55;101142.91;5110244;28;20048;-78
2022/10/14 05:21:29;;;;;;;10.32;5.93;;;;;;;17.62;69.18;101151.34;5107847;28;20052;-80
2022/10/14 05:23:55;;;;;;;8.05;4.22;;;;;;;17.45;69.15;101143.50;5104834;28;20051;-80
2022/10/14 05:26:22;;;;;;;5.05;3.25;;;;;;;17.25;69.36;101118.50;5106543;28;20394;-80
2022/10/14 05:28:51;;;;;;;5.57;3.30;;;;;;;17.27;69.57;101139.63;5103766;28;20047;-82
2022/10/14 05:31:18;;;;;;;5.78;3.28;;;;;;;17.30;69.76;101138.16;5102555;28;20078;-81
2022/10/14 05:33:44;;;;;;;6.28;3.65;;;;;;;17.04;69.43;101092.66;5099181;28;20059;-79
2022/10/14 05:36:11;;;;;;;7.10;4.40;;;;;;;17.53;68.60;101144.75;5104858;28;20048;-80
2022/10/14 05:38:38;;;;;;;4.82;3.42;;;;;;;17.61;68.48;101138.41;5103889;28;21598;-80
2022/10/14 05:41:05;;;;;;;6.15;3.80;;;;;;;17.50;68.98;101136.91;5107534;28;20048;-80
2022/10/14 05:43:32;;;;;;;5.90;3.53;;;;;;;17.25;69.19;101124.97;5097745;28;20498;-81
2022/10/14 05:45:59;;;;;;;5.63;3.42;;;;;;;17.22;69.52;101125.59;5114372;27;20139;-78
2022/10/14 05:48:26;;;;;;;6.22;3.70;;;;;;;17.42;68.86;101132.00;5099702;28;20055;-81
2022/10/14 05:50:53;;;;;;;7.03;3.78;;;;;;;17.29;69.17;101137.31;5098702;28;20063;-82
2022/10/14 05:53:20;;;;;;;8.65;4.45;;;;;;;17.45;68.94;101151.13;5101337;28;20422;-76
2022/10/14 05:55:47;;;;;;;7.80;4.28;;;;;;;17.63;68.52;101144.53;5097008;28;20040;-77
2022/10/14 05:58:14;;;;;;;7.47;4.68;;;;;;;17.64;68.78;101143.41;5103062;28;20054;-78
2022/10/14 06:00:41;;;;;;;7.07;4.28;;;;;;;17.39;68.88;101121.31;5099551;27;20040;-77
2022/10/14 06:03:11;;;;;;;8.82;4.45;;;;;;;17.12;69.51;101091.91;5107950;28;20044;-79
2022/10/14 06:05:37;;;;;;;;;;;;;;;17.38;69.95;101139.44;5096946;28;20083;-79
2022/10/14 06:08:04;;;;;;;5.75;3.88;;;;;;;17.37;69.79;101140.59;5099699;28;20378;-81
2022/10/14 06:10:31;;;;;;;7.80;4.65;;;;;;;17.15;69.93;101118.69;5101270;28;20043;-78
2022/10/14 06:12:58;;;;;;;7.70;4.18;;;;;;;17.05;69.81;101114.06;5099562;28;20087;-80
2022/10/14 06:15:27;;;;;;;7.05;3.70;;;;;;;16.89;70.27;101109.84;5096322;28;20047;-78
2022/10/14 06:17:53;;;;;;;5.32;3.88;;;;;;;16.91;70.87;101125.31;5104170;28;20051;-78
2022/10/14 06:20:20;;;;;;;8.50;3.78;;;;;;;16.78;71.42;101126.13;5100109;28;20414;-79
2022/10/14 06:22:47;;;;;;;5.80;3.45;;;;;;;16.59;71.29;101110.06;5099018;28;20054;-78
2022/10/14 06:25:14;;;;;;;6.20;3.05;;;;;;;16.76;71.37;101111.50;5099293;28;20051;-79
2022/10/14 06:27:41;;;;;;;7.10;4.10;;;;;;;16.54;71.08;101067.00;5097433;28;20054;-79
2022/10/14 06:30:09;;;;;;;7.05;4.55;;;;;;;16.81;71.45;101106.59;5097140;28;20058;-80
2022/10/14 06:32:35;;;;;;;6.47;4.25;;;;;;;16.66;71.52;101097.53;5099295;28;20052;-79
2022/10/14 06:35:02;;;;;;;4.95;3.35;;;;;;;16.61;71.67;101101.28;5103659;28;20154;-76
2022/10/14 06:37:30;;;;;;;5.97;3.88;;;;;;;16.73;71.58;101129.84;5098384;28;20043;-77
2022/10/14 06:39:56;;;;;;;8.98;5.88;;;;;;;16.78;71.28;101128.94;5098189;28;20048;-78
2022/10/14 06:42:23;;;;;;;7.82;4.35;;;;;;;16.88;71.20;101113.81;5120606;27;20058;-79
2022/10/14 06:44:50;;;;;;;6.68;4.20;;;;;;;16.94;70.41;101106.94;5102545;28;20143;-79
2022/10/14 06:47:17;;;;;;;7.25;4.75;;;;;;;17.11;70.76;101132.59;5106083;28;20043;-81
2022/10/14 06:49:44;;;;;;;6.70;4.07;;;;;;;17.11;69.99;101124.13;5104816;28;20410;-85
2022/10/14 06:52:11;;;;;;;9.02;4.82;;;;;;;17.07;69.86;101080.75;5101050;28;20043;-80
2022/10/14 06:54:38;;;;;;;7.82;4.90;;;;;;;17.37;69.95;101126.47;5097702;28;20516;-77
2022/10/14 06:57:08;;;;;;;6.95;4.72;;;;;;;17.39;69.74;101124.16;5095699;28;20086;-77
2022/10/14 06:59:34;;;;;;;8.88;5.07;;;;;;;17.35;70.11;101123.09;5098529;28;20052;-78
2022/10/14 07:02:01;;;;;;;7.18;5.10;;;;;;;17.39;69.52;101113.69;5100701;28;20055;-78
2022/10/14 07:04:28;;;;;;;7.97;4.72;;;;;;;17.26;69.82;101103.22;5103168;28;20060;-78
2022/10/14 07:06:57;;;;;;;9.80;5.20;;;;;;;17.50;69.55;101131.25;5106187;28;20051;-78
2022/10/14 07:09:23;;;;;;;9.48;5.15;;;;;;;17.55;69.37;101116.22;5099737;28;20047;-78
2022/10/14 07:11:50;;;;;;;9.48;5.65;;;;;;;17.65;69.35;101127.31;5106725;28;20048;-78
2022/10/14 07:14:17;;;;;;;7.22;4.97;;;;;;;17.59;69.44;101129.38;5099154;28;20047;-78
2022/10/14 07:16:44;;;;;;;13.48;7.85;;;;;;;17.81;69.18;101142.81;5105693;28;20055;-78
2022/10/14 07:19:11;;;;;;;7.10;4.72;;;;;;;17.74;69.37;101139.53;5097085;28;20055;-79
2022/10/14 07:21:38;;;;;;;11.30;5.85;;;;;;;17.57;69.73;101137.31;5097020;28;20043;-78
2022/10/14 07:24:05;;;;;;;9.55;5.75;;;;;;;17.69;69.24;101129.19;5100390;28;20043;-77
2022/10/14 07:26:32;;;;;;;10.45;5.90;;;;;;;17.94;68.99;101158.88;5103601;28;20044;-78
2022/10/14 07:28:59;;;;;;;9.38;5.10;;;;;;;17.96;69.08;101152.94;5099807;28;20074;-77
2022/10/14 07:31:26;;;;;;;9.57;5.07;;;;;;;18.03;69.21;101153.34;5101318;28;20501;-78
2022/10/14 07:33:53;;;;;;;9.15;5.10;;;;;;;18.16;69.06;101158.16;5100587;28;20047;-78
2022/10/14 07:36:20;;;;;;;9.43;5.85;;;;;;;18.01;68.67;101141.50;5102555;28;20048;-78
2022/10/14 07:38:48;;;;;;;7.07;4.53;;;;;;;18.15;68.87;101158.44;5104336;28;20059;-77
2022/10/14 07:41:19;;;;;;;8.82;5.95;;;;;;;18.30;68.46;101182.72;5094890;28;20059;-78
2022/10/14 07:43:48;;;;;;;10.52;5.45;;;;;;;18.18;68.97;101157.81;5093085;28;20414;-79
2022/10/14 07:46:27;;;;;;;7.95;5.32;;;;;;;18.37;68.95;101178.31;5104677;28;20044;-79
2022/10/14 07:49:06;;;;;;;11.40;5.85;;;;;;;18.44;68.82;101177.88;5099015;28;20512;-78
2022/10/14 07:51:35;;;;;;;10.63;5.25;;;;;;;18.50;68.48;101193.56;5104989;28;20051;-78
2022/10/14 07:54:04;;;;;;;8.77;5.13;;;;;;;18.49;68.66;101180.56;5102352;28;20494;-78
2022/10/14 07:56:30;;;;;;;10.63;5.53;;;;;;;18.52;68.40;101179.94;5107067;27;20052;-79
2022/10/14 07:58:58;;;;;;;9.55;5.20;;;;;;;18.65;68.20;101189.53;5103671;28;20047;-78
2022/10/14 08:01:24;;;;;;;8.13;4.63;;;;;;;18.61;68.42;101195.00;5098294;28;20074;-78
2022/10/14 08:03:52;;;;;;;6.78;4.57;;;;;;;18.60;68.05;101193.31;5098138;28;20102;-79
2022/10/14 08:06:19;;;;;;;8.68;5.55;;;;;;;18.30;68.27;101143.16;5098939;28;20158;-78
2022/10/14 08:08:46;;;;;;;8.90;5.10;;;;;;;18.59;68.29;101194.47;5109169;28;20047;-78
2022/10/14 08:11:24;;;;;;;8.90;5.30;;;;;;;18.58;67.92;101181.47;5106667;28;20131;-79
2022/10/14 08:13:52;;;;;;;8.60;4.70;;;;;;;18.66;68.20;101197.69;5104647;28;20047;-79
2022/10/14 08:16:28;;;;;;;9.00;5.65;;;;;;;18.64;68.26;101199.19;5098806;28;20051;-79
2022/10/14 08:18:58;;;;;;;11.65;6.32;;;;;;;18.68;68.22;101203.88;5100373;28;20047;-78
2022/10/14 08:21:25;;;;;;;13.63;7.32;;;;;;;18.70;68.55;101203.56;5096656;28;20051;-78
2022/10/14 08:23:53;;;;;;;13.38;8.13;;;;;;;18.81;68.11;101198.53;5103743;28;20048;-78
2022/10/14 08:26:25;;;;;;;10.63;7.00;;;;;;;18.97;68.07;101202.63;5099753;28;20051;-79
2022/10/14 08:28:52;;;;;;;22.63;7.57;;;;;;;18.83;68.01;101179.22;5100973;28;20059;-78
2022/10/14 08:31:20;;;;;;;16.90;8.98;;;;;;;19.00;67.84;101189.84;5102560;28;20044;-79
2022/10/14 08:33:47;;;;;;;12.82;7.65;;;;;;;19.07;67.83;101204.38;5095466;28;20062;-78
2022/10/14 08:36:17;;;;;;;10.48;6.57;;;;;;;19.04;68.03;101183.22;5105179;28;20048;-78
2022/10/14 08:38:44;;;;;;;11.32;7.05;;;;;;;18.93;67.83;101184.63;5104169;28;20048;-79
2022/10/14 08:41:11;;;;;;;12.13;7.45;;;;;;;19.24;67.66;101217.81;5101453;28;20161;-79
2022/10/14 08:44:06;;;;;;;13.02;8.43;;;;;;;19.44;67.68;101205.09;5105314;28;20483;-78
2022/10/14 08:46:45;;;;;;;11.25;7.72;;;;;;;19.39;67.78;101183.44;5109303;28;20085;-79
2022/10/14 08:49:29;;;;;;;14.23;8.18;;;;;;;19.68;67.41;101201.94;5100563;28;20466;-77
2022/10/14 08:52:17;;;;;;;18.65;8.43;;;;;;;19.84;67.30;101208.84;5107124;28;20047;-78
2022/10/14 08:54:54;;;;;;;13.32;8.05;;;;;;;19.86;67.08;101190.34;5105433;28;20066;-78
2022/10/14 08:57:25;;;;;;;12.68;7.65;;;;;;;20.11;67.04;101208.59;5102533;28;20047;-78
2022/10/14 08:59:53;;;;;;;14.18;7.60;;;;;;;20.19;66.77;101208.94;5110423;28;20055;-78
2022/10/14 09:02:49;;;;;;;12.02;7.13;;;;;;;20.29;66.71;101208.63;5109224;27;20051;-79
2022/10/14 09:05:20;;;;;;;12.20;7.13;;;;;;;20.39;66.64;101191.31;5106270;28;20059;-77
2022/10/14 09:07:50;;;;;;;19.15;13.55;;;;;;;20.71;66.24;101181.50;5104169;28;20063;-78
2022/10/14 09:10:33;;;;;;;43.50;21.65;;;;;;;21.20;65.88;101210.53;5103703;28;20121;-79
2022/10/14 09:13:31;;;;;;;105.03;53.85;;;;;;;21.50;65.27;101193.59;5106726;28;20143;-79
2022/10/14 09:16:31;;;;;;;37.88;18.27;;;;;;;21.85;64.86;101197.16;5093137;28;20052;-78
2022/10/14 09:19:01;;;;;;;24.60;15.40;;;;;;;22.10;64.29;101203.06;5095394;28;20051;-79
2022/10/14 09:21:32;;;;;;;;;;;;;;;22.30;64.92;101196.59;5101706;28;20060;-79
2022/10/14 09:24:25;;;;;;;89.75;42.47;;;;;;;22.58;63.86;101207.47;5105456;28;19920;-78
2022/10/14 09:26:59;;;;;;;59.08;28.95;;;;;;;22.73;63.53;101203.16;5104204;28;20466;-79
2022/10/14 09:29:41;;;;;;;52.42;25.80;;;;;;;22.81;63.15;101202.25;5106457;28;20086;-79
2022/10/14 09:32:14;;;;;;;23.83;13.85;;;;;;;22.81;62.78;101160.38;5107743;28;20050;-79
2022/10/14 09:34:46;;;;;;;29.75;15.20;;;;;;;23.41;61.83;101190.28;5103454;28;21908;-79
2022/10/14 09:37:32;;;;;;;24.23;12.85;;;;;;;23.81;61.45;101191.69;5108020;28;20055;-78
2022/10/14 09:40:08;;;;;;;16.77;9.43;;;;;;;24.30;60.42;101194.53;5099596;28;20058;-79
2022/10/14 09:43:00;;;;;;;13.57;6.95;;;;;;;24.86;59.20;101176.72;5103704;28;20055;-79
2022/10/14 09:45:44;;;;;;;13.30;6.20;;;;;;;25.45;58.07;101185.38;5096311;28;20793;-78
2022/10/14 09:48:20;;;;;;;12.68;7.47;;;;;;;26.16;57.01;101168.41;5102476;28;20406;-78
2022/10/14 09:50:50;;;;;;;8.93;6.10;;;;;;;26.61;55.65;101165.00;5099003;28;20052;-78
2022/10/14 09:53:47;;;;;;;11.13;5.55;;;;;;;27.04;55.72;101182.25;5107341;28;20047;-78
2022/10/14 09:56:15;;;;;;;7.65;4.70;;;;;;;27.37;54.16;101178.84;5109246;28;20051;-78
2022/10/14 09:58:54;;;;;;;8.80;4.38;;;;;;;27.51;53.71;101187.72;5098170;28;20163;-77
2022/10/14 10:01:23;;;;;;;10.93;4.95;;;;;;;27.40;53.18;101160.91;5102468;28;20047;-78
2022/10/14 10:03:52;;;;;;;6.93;3.90;;;;;;;27.39;52.89;101190.78;5104019;28;20047;-78
2022/10/14 10:06:22;;;;;;;8.65;4.70;;;;;;;27.32;52.70;101179.19;5107733;28;20063;-78
2022/10/14 10:08:52;;;;;;;9.48;4.72;;;;;;;27.29;52.43;101186.50;5105806;28;20048;-78
2022/10/14 10:11:39;;;;;;;6.85;4.63;;;;;;;27.17;52.94;101164.53;5108878;28;20047;-78
2022/10/14 10:14:15;;;;;;;6.90;4.47;;;;;;;27.90;51.96;101175.31;5104735;28;20043;-78
2022/10/14 10:16:42;;;;;;;7.38;4.25;;;;;;;28.58;50.72;101174.34;5104933;28;20051;-78
2022/10/14 10:19:31;;;;;;;5.63;3.53;;;;;;;29.27;50.21;101156.78;5100258;28;20420;-79
2022/10/14 10:22:16;;;;;;;5.32;3.67;;;;;;;30.10;49.29;101158.41;5097876;28;20052;-79
2022/10/14 10:25:08;;;;;;;8.73;3.80;;;;;;;30.89;47.99;101172.09;5104843;28;20055;-78
2022/10/14 10:27:48;;;;;;;5.80;3.58;;;;;;;31.38;46.50;101152.50;5110442;28;20047;-78
2022/10/14 10:30:20;;;;;;;6.90;3.45;;;;;;;31.95;45.21;101166.19;5101991;28;20127;-80
2022/10/14 10:32:58;;;;;;;5.60;3.40;;;;;;;32.39;44.85;101170.69;5103242;28;20430;-78
2022/10/14 10:35:47;;;;;;;6.38;4.05;;;;;;;32.72;44.28;101154.91;5102282;28;20059;-79
2022/10/14 10:38:20;;;;;;;9.20;4.43;;;;;;;32.90;43.59;101154.88;5097535;28;20478;-79
2022/10/14 10:41:11;;;;;;;7.57;3.80;;;;;;;32.90;42.70;101160.66;5100538;28;20055;-79
2022/10/14 10:43:53;;;;;;;6.15;3.50;;;;;;;32.22;43.13;101161.63;5106623;28;20040;-79
2022/10/14 10:46:50;;;;;;;7.13;3.85;;;;;;;32.20;43.48;101151.72;5109869;28;20047;-79
2022/10/14 10:49:40;;;;;;;7.13;3.28;;;;;;;32.26;42.68;101159.56;5104241;28;20079;-79
2022/10/14 10:52:11;;;;;;;8.55;4.03;;;;;;;32.16;42.22;101150.91;5102517;28;20071;-80
2022/10/14 10:55:10;;;;;;;7.35;3.45;;;;;;;31.47;42.28;101147.16;5097066;28;20098;-78
2022/10/14 10:58:06;;;;;;;5.82;2.80;;;;;;;30.52;43.55;101128.22;5101692;28;20498;-78
2022/10/14 11:00:51;;;;;;;6.38;2.55;;;;;;;29.66;43.75;101119.78;5102082;28;20555;-78
2022/10/14 11:03:30;;;;;;;6.65;2.88;;;;;;;29.24;44.39;101143.19;5101977;28;20078;-78
2022/10/14 11:12:33;;;;;;;5.60;2.35;;;;;;;27.96;45.50;101133.59;5102463;28;20479;-78
2022/10/14 11:15:18;;;;;;;6.15;2.28;;;;;;;28.00;45.51;101141.06;5102835;28;20104;-79
2022/10/14 11:18:05;;;;;;;4.57;2.08;;;;;;;27.67;45.62;101133.09;5103008;28;20083;-79
2022/10/14 11:20:50;;;;;;;2.42;1.50;;;;;;;27.47;45.69;101131.50;5106313;28;20097;-78
2022/10/14 11:23:36;;;;;;;3.05;1.92;;;;;;;27.52;45.78;101126.31;5098828;28;20058;-78
2022/10/14 11:26:12;;;;;;;2.25;1.85;;;;;;;28.10;45.24;101120.31;5104786;28;20079;-78
2022/10/14 11:28:55;;;;;;;3.80;2.60;;;;;;;29.40;43.76;101120.78;5106567;28;20380;-78
2022/10/14 11:31:28;;;;;;;3.30;1.95;;;;;;;30.81;42.04;101130.06;5098974;28;20463;-78
2022/10/14 11:34:10;;;;;;;3.65;1.92;;;;;;;32.03;40.57;101124.50;5094119;28;20085;-80
2022/10/14 11:36:48;;;;;;;8.60;3.08;;;;;;;32.41;39.42;101116.16;5101914;28;20044;-79
2022/10/14 11:39:31;;;;;;;5.88;2.00;;;;;;;32.36;39.43;101113.72;5099159;28;20178;-78
2022/10/14 11:42:19;;;;;;;4.60;2.53;;;;;;;31.48;39.76;101111.28;5108154;28;20047;-78
2022/10/14 11:44:57;;;;;;;4.22;2.55;;;;;;;30.66;40.51;101100.28;5100424;28;20410;-78
2022/10/14 11:47:30;;;;;;;5.82;2.58;;;;;;;30.21;41.35;101102.53;5092988;28;20047;-79
2022/10/14 11:50:17;;;;;;;5.15;2.25;;;;;;;30.15;41.26;101083.94;5103658;28;20051;-78
2022/10/14 11:53:04;;;;;;;3.28;2.20;;;;;;;30.97;39.90;101109.50;5098612;28;20063;-78